sensor_id;sensor_type;location;lat;lon;timestamp;P1;durP1;ratioP1;P2;durP2;ratioP2
55146;SDS011;41039;49.830;23.988;2023-10-09T00:01:13;5.60;;;1.95;;
55146;SDS011;41039;49.830;23.988;2023-10-09T00:03:41;5.07;;;2.22;;
55146;SDS011;41039;49.830;23.988;2023-10-09T00:06:07;8.30;;;3.38;;
55146;SDS011;41039;49.830;23.988;2023-10-09T00:08:32;4.15;;;2.58;;
55146;SDS011;41039;49.830;23.988;2023-10-09T00:11:00;5.90;;;2.50;;
55146;SDS011;41039;49.830;23.988;2023-10-09T00:13:45;4.13;;;2.25;;
55146;SDS011;41039;49.830;23.988;2023-10-09T00:16:23;4.57;;;1.90;;
55146;SDS011;41039;49.830;23.988;2023-10-09T00:18:58;5.03;;;1.73;;
55146;SDS011;41039;49.830;23.988;2023-10-09T00:21:37;6.35;;;2.05;;
55146;SDS011;41039;49.830;23.988;2023-10-09T00:24:03;4.18;;;2.13;;
55146;SDS011;41039;49.830;23.988;2023-10-09T00:26:30;9.38;;;3.17;;
55146;SDS011;41039;49.830;23.988;2023-10-09T00:29:08;7.32;;;2.83;;
55146;SDS011;41039;49.830;23.988;2023-10-09T00:31:33;5.65;;;2.45;;
55146;SDS011;41039;49.830;23.988;2023-10-09T00:33:59;5.45;;;1.90;;
55146;SDS011;41039;49.830;23.988;2023-10-09T00:36:30;3.42;;;1.58;;
55146;SDS011;41039;49.830;23.988;2023-10-09T00:38:55;5.65;;;2.05;;
55146;SDS011;41039;49.830;23.988;2023-10-09T00:41:24;3.65;;;1.90;;
55146;SDS011;41039;49.830;23.988;2023-10-09T00:43:54;4.30;;;2.13;;
55146;SDS011;41039;49.830;23.988;2023-10-09T00:46:24;6.30;;;1.50;;
55146;SDS011;41039;49.830;23.988;2023-10-09T00:48:51;4.72;;;1.98;;
55146;SDS011;41039;49.830;23.988;2023-10-09T00:51:16;3.60;;;1.65;;
55146;SDS011;41039;49.830;23.988;2023-10-09T00:53:51;3.65;;;1.75;;
55146;SDS011;41039;49.830;23.988;2023-10-09T00:56:22;3.53;;;1.60;;
55146;SDS011;41039;49.830;23.988;2023-10-09T00:58:51;3.47;;;1.90;;
55146;SDS011;41039;49.830;23.988;2023-10-09T01:01:24;3.30;;;1.52;;
55146;SDS011;41039;49.830;23.988;2023-10-09T01:03:53;5.07;;;2.35;;
55146;SDS011;41039;49.830;23.988;2023-10-09T01:06:19;4.00;;;2.05;;
55146;SDS011;41039;49.830;23.988;2023-10-09T01:08:46;7.13;;;2.40;;
55146;SDS011;41039;49.830;23.988;2023-10-09T01:11:21;5.22;;;2.08;;
55146;SDS011;41039;49.830;23.988;2023-10-09T01:13:49;6.72;;;2.42;;
55146;SDS011;41039;49.830;23.988;2023-10-09T01:16:18;5.22;;;2.03;;
55146;SDS011;41039;49.830;23.988;2023-10-09T01:18:43;5.15;;;2.25;;
55146;SDS011;41039;49.830;23.988;2023-10-09T01:21:10;4.88;;;2.13;;
55146;SDS011;41039;49.830;23.988;2023-10-09T01:23:41;4.75;;;2.38;;
55146;SDS011;41039;49.830;23.988;2023-10-09T01:26:24;4.68;;;2.13;;
55146;SDS011;41039;49.830;23.988;2023-10-09T01:28:49;8.82;;;2.70;;
55146;SDS011;41039;49.830;23.988;2023-10-09T01:31:15;4.93;;;2.13;;
55146;SDS011;41039;49.830;23.988;2023-10-09T01:33:40;6.63;;;2.17;;
55146;SDS011;41039;49.830;23.988;2023-10-09T01:36:07;4.60;;;2.15;;
55146;SDS011;41039;49.830;23.988;2023-10-09T01:38:34;5.07;;;2.13;;
55146;SDS011;41039;49.830;23.988;2023-10-09T01:41:13;4.85;;;2.20;;
55146;SDS011;41039;49.830;23.988;2023-10-09T01:43:44;5.35;;;2.47;;
55146;SDS011;41039;49.830;23.988;2023-10-09T01:46:13;4.47;;;2.28;;
55146;SDS011;41039;49.830;23.988;2023-10-09T01:48:41;3.33;;;1.88;;
55146;SDS011;41039;49.830;23.988;2023-10-09T01:51:14;5.50;;;2.20;;
55146;SDS011;41039;49.830;23.988;2023-10-09T01:53:42;5.05;;;2.10;;
55146;SDS011;41039;49.830;23.988;2023-10-09T01:56:10;6.00;;;2.20;;
55146;SDS011;41039;49.830;23.988;2023-10-09T01:58:42;3.95;;;2.03;;
55146;SDS011;41039;49.830;23.988;2023-10-09T02:01:12;5.28;;;2.33;;
55146;SDS011;41039;49.830;23.988;2023-10-09T02:03:37;5.78;;;2.35;;
55146;SDS011;41039;49.830;23.988;2023-10-09T02:06:03;9.10;;;2.65;;
55146;SDS011;41039;49.830;23.988;2023-10-09T02:08:30;7.03;;;2.60;;
55146;SDS011;41039;49.830;23.988;2023-10-09T02:11:00;8.13;;;3.22;;
55146;SDS011;41039;49.830;23.988;2023-10-09T02:13:27;4.57;;;2.50;;
55146;SDS011;41039;49.830;23.988;2023-10-09T02:15:59;6.45;;;2.45;;
55146;SDS011;41039;49.830;23.988;2023-10-09T02:18:38;5.70;;;2.58;;
55146;SDS011;41039;49.830;23.988;2023-10-09T02:21:21;5.28;;;2.13;;
55146;SDS011;41039;49.830;23.988;2023-10-09T02:23:58;5.80;;;3.03;;
55146;SDS011;41039;49.830;23.988;2023-10-09T02:26:28;5.55;;;2.70;;
55146;SDS011;41039;49.830;23.988;2023-10-09T02:29:14;4.30;;;2.20;;
55146;SDS011;41039;49.830;23.988;2023-10-09T02:31:39;9.77;;;2.45;;
55146;SDS011;41039;49.830;23.988;2023-10-09T02:34:11;5.68;;;2.10;;
55146;SDS011;41039;49.830;23.988;2023-10-09T02:36:37;5.05;;;2.08;;
55146;SDS011;41039;49.830;23.988;2023-10-09T02:39:14;4.70;;;2.13;;
55146;SDS011;41039;49.830;23.988;2023-10-09T02:41:55;5.25;;;2.10;;
55146;SDS011;41039;49.830;23.988;2023-10-09T02:44:26;5.88;;;2.33;;
55146;SDS011;41039;49.830;23.988;2023-10-09T02:46:55;3.03;;;1.65;;
55146;SDS011;41039;49.830;23.988;2023-10-09T02:49:22;4.28;;;2.42;;
55146;SDS011;41039;49.830;23.988;2023-10-09T02:51:48;4.97;;;2.20;;
55146;SDS011;41039;49.830;23.988;2023-10-09T02:54:18;5.65;;;2.25;;
55146;SDS011;41039;49.830;23.988;2023-10-09T02:56:47;4.18;;;2.15;;
55146;SDS011;41039;49.830;23.988;2023-10-09T02:59:14;5.47;;;1.98;;
55146;SDS011;41039;49.830;23.988;2023-10-09T03:01:39;4.05;;;2.10;;
55146;SDS011;41039;49.830;23.988;2023-10-09T03:04:05;6.20;;;2.75;;
55146;SDS011;41039;49.830;23.988;2023-10-09T03:06:31;4.10;;;2.13;;
55146;SDS011;41039;49.830;23.988;2023-10-09T03:08:59;5.47;;;2.20;;
55146;SDS011;41039;49.830;23.988;2023-10-09T03:11:24;5.72;;;2.20;;
55146;SDS011;41039;49.830;23.988;2023-10-09T03:13:51;6.68;;;2.60;;
55146;SDS011;41039;49.830;23.988;2023-10-09T03:16:18;4.47;;;2.25;;
55146;SDS011;41039;49.830;23.988;2023-10-09T03:18:48;5.47;;;3.00;;
55146;SDS011;41039;49.830;23.988;2023-10-09T03:21:14;4.75;;;2.50;;
55146;SDS011;41039;49.830;23.988;2023-10-09T03:23:40;4.68;;;2.60;;
55146;SDS011;41039;49.830;23.988;2023-10-09T03:26:05;7.75;;;3.38;;
55146;SDS011;41039;49.830;23.988;2023-10-09T03:28:33;7.00;;;3.58;;
55146;SDS011;41039;49.830;23.988;2023-10-09T03:30:58;8.73;;;3.47;;
55146;SDS011;41039;49.830;23.988;2023-10-09T03:33:27;8.57;;;3.60;;
55146;SDS011;41039;49.830;23.988;2023-10-09T03:35:52;12.68;;;4.35;;
55146;SDS011;41039;49.830;23.988;2023-10-09T03:38:18;9.00;;;3.85;;
55146;SDS011;41039;49.830;23.988;2023-10-09T03:40:44;6.82;;;3.00;;
55146;SDS011;41039;49.830;23.988;2023-10-09T03:43:13;7.72;;;3.53;;
55146;SDS011;41039;49.830;23.988;2023-10-09T03:45:38;6.97;;;2.97;;
55146;SDS011;41039;49.830;23.988;2023-10-09T03:48:10;6.38;;;3.35;;
55146;SDS011;41039;49.830;23.988;2023-10-09T03:50:48;6.97;;;2.67;;
55146;SDS011;41039;49.830;23.988;2023-10-09T03:53:13;5.28;;;2.80;;
55146;SDS011;41039;49.830;23.988;2023-10-09T03:55:39;5.45;;;3.05;;
55146;SDS011;41039;49.830;23.988;2023-10-09T03:58:07;6.70;;;3.08;;
55146;SDS011;41039;49.830;23.988;2023-10-09T04:00:36;6.82;;;2.80;;
55146;SDS011;41039;49.830;23.988;2023-10-09T04:05:36;6.85;;;2.97;;
55146;SDS011;41039;49.830;23.988;2023-10-09T04:08:02;5.85;;;2.63;;
55146;SDS011;41039;49.830;23.988;2023-10-09T04:10:37;5.85;;;2.83;;
55146;SDS011;41039;49.830;23.988;2023-10-09T04:13:10;8.00;;;4.22;;
55146;SDS011;41039;49.830;23.988;2023-10-09T04:15:43;8.65;;;4.65;;
55146;SDS011;41039;49.830;23.988;2023-10-09T04:18:09;9.52;;;3.85;;
55146;SDS011;41039;49.830;23.988;2023-10-09T04:20:40;6.32;;;3.05;;
55146;SDS011;41039;49.830;23.988;2023-10-09T04:23:24;6.72;;;3.00;;
55146;SDS011;41039;49.830;23.988;2023-10-09T04:26:00;6.28;;;2.65;;
55146;SDS011;41039;49.830;23.988;2023-10-09T04:28:35;4.47;;;2.75;;
55146;SDS011;41039;49.830;23.988;2023-10-09T04:31:01;5.25;;;2.80;;
55146;SDS011;41039;49.830;23.988;2023-10-09T04:33:31;5.68;;;2.75;;
55146;SDS011;41039;49.830;23.988;2023-10-09T04:36:02;4.88;;;2.63;;
55146;SDS011;41039;49.830;23.988;2023-10-09T04:38:41;5.90;;;2.88;;
55146;SDS011;41039;49.830;23.988;2023-10-09T04:41:20;5.45;;;2.33;;
55146;SDS011;41039;49.830;23.988;2023-10-09T04:43:52;5.60;;;2.78;;
55146;SDS011;41039;49.830;23.988;2023-10-09T04:46:28;6.50;;;3.83;;
55146;SDS011;41039;49.830;23.988;2023-10-09T04:48:54;7.63;;;3.63;;
55146;SDS011;41039;49.830;23.988;2023-10-09T04:51:19;5.75;;;2.72;;
55146;SDS011;41039;49.830;23.988;2023-10-09T04:53:58;6.20;;;3.28;;
55146;SDS011;41039;49.830;23.988;2023-10-09T04:56:39;8.68;;;3.22;;
55146;SDS011;41039;49.830;23.988;2023-10-09T04:59:17;8.13;;;3.63;;
55146;SDS011;41039;49.830;23.988;2023-10-09T05:01:43;7.88;;;3.92;;
55146;SDS011;41039;49.830;23.988;2023-10-09T05:04:23;7.15;;;4.05;;
55146;SDS011;41039;49.830;23.988;2023-10-09T05:07:03;15.25;;;3.88;;
55146;SDS011;41039;49.830;23.988;2023-10-09T05:09:48;12.60;;;4.70;;
55146;SDS011;41039;49.830;23.988;2023-10-09T05:12:33;13.50;;;5.78;;
55146;SDS011;41039;49.830;23.988;2023-10-09T05:14:59;13.48;;;4.82;;
55146;SDS011;41039;49.830;23.988;2023-10-09T05:17:36;11.68;;;4.47;;
55146;SDS011;41039;49.830;23.988;2023-10-09T05:20:03;12.82;;;4.22;;
55146;SDS011;41039;49.830;23.988;2023-10-09T05:22:46;10.52;;;3.70;;
55146;SDS011;41039;49.830;23.988;2023-10-09T05:25:44;5.97;;;3.25;;
55146;SDS011;41039;49.830;23.988;2023-10-09T05:28:18;5.97;;;3.05;;
55146;SDS011;41039;49.830;23.988;2023-10-09T05:30:50;6.55;;;3.00;;
55146;SDS011;41039;49.830;23.988;2023-10-09T05:33:27;6.28;;;3.15;;
55146;SDS011;41039;49.830;23.988;2023-10-09T05:35:53;8.48;;;3.42;;
55146;SDS011;41039;49.830;23.988;2023-10-09T05:38:36;6.75;;;3.70;;
55146;SDS011;41039;49.830;23.988;2023-10-09T05:41:11;5.30;;;3.22;;
55146;SDS011;41039;49.830;23.988;2023-10-09T05:43:55;5.57;;;3.10;;
55146;SDS011;41039;49.830;23.988;2023-10-09T05:46:39;6.72;;;3.33;;
55146;SDS011;41039;49.830;23.988;2023-10-09T05:49:14;8.70;;;3.50;;
55146;SDS011;41039;49.830;23.988;2023-10-09T05:51:49;6.50;;;2.60;;
55146;SDS011;41039;49.830;23.988;2023-10-09T05:54:18;7.25;;;3.78;;
55146;SDS011;41039;49.830;23.988;2023-10-09T05:57:09;7.70;;;3.30;;
55146;SDS011;41039;49.830;23.988;2023-10-09T05:59:54;12.70;;;3.50;;
55146;SDS011;41039;49.830;23.988;2023-10-09T06:02:38;7.85;;;3.58;;
55146;SDS011;41039;49.830;23.988;2023-10-09T06:05:29;16.00;;;3.70;;
55146;SDS011;41039;49.830;23.988;2023-10-09T06:08:15;5.60;;;3.00;;
55146;SDS011;41039;49.830;23.988;2023-10-09T06:10:49;8.27;;;3.05;;
55146;SDS011;41039;49.830;23.988;2023-10-09T06:13:30;5.93;;;4.15;;
55146;SDS011;41039;49.830;23.988;2023-10-09T06:16:02;5.95;;;3.30;;
55146;SDS011;41039;49.830;23.988;2023-10-09T06:19:06;8.43;;;3.58;;
55146;SDS011;41039;49.830;23.988;2023-10-09T06:21:40;7.13;;;3.45;;
55146;SDS011;41039;49.830;23.988;2023-10-09T06:24:20;5.82;;;3.28;;
55146;SDS011;41039;49.830;23.988;2023-10-09T06:26:47;11.23;;;3.20;;
55146;SDS011;41039;49.830;23.988;2023-10-09T06:29:25;9.35;;;4.78;;
55146;SDS011;41039;49.830;23.988;2023-10-09T06:34:46;10.60;;;4.55;;
55146;SDS011;41039;49.830;23.988;2023-10-09T06:37:17;8.40;;;4.57;;
55146;SDS011;41039;49.830;23.988;2023-10-09T06:39:59;11.93;;;5.30;;
55146;SDS011;41039;49.830;23.988;2023-10-09T06:42:25;8.68;;;3.88;;
55146;SDS011;41039;49.830;23.988;2023-10-09T06:45:09;7.72;;;3.97;;
55146;SDS011;41039;49.830;23.988;2023-10-09T06:47:46;8.82;;;4.35;;
55146;SDS011;41039;49.830;23.988;2023-10-09T06:50:21;7.55;;;3.80;;
55146;SDS011;41039;49.830;23.988;2023-10-09T06:52:46;9.38;;;4.07;;
55146;SDS011;41039;49.830;23.988;2023-10-09T06:55:43;10.68;;;4.75;;
55146;SDS011;41039;49.830;23.988;2023-10-09T06:58:18;5.72;;;2.95;;
55146;SDS011;41039;49.830;23.988;2023-10-09T07:00:54;9.40;;;4.18;;
55146;SDS011;41039;49.830;23.988;2023-10-09T07:03:19;7.82;;;2.95;;
55146;SDS011;41039;49.830;23.988;2023-10-09T07:05:44;5.03;;;3.63;;
55146;SDS011;41039;49.830;23.988;2023-10-09T07:08:30;6.25;;;3.95;;
55146;SDS011;41039;49.830;23.988;2023-10-09T07:11:06;7.88;;;3.97;;
55146;SDS011;41039;49.830;23.988;2023-10-09T07:13:52;7.50;;;4.32;;
55146;SDS011;41039;49.830;23.988;2023-10-09T07:16:23;7.60;;;4.20;;
55146;SDS011;41039;49.830;23.988;2023-10-09T07:19:03;7.20;;;3.58;;
55146;SDS011;41039;49.830;23.988;2023-10-09T07:21:35;8.10;;;3.67;;
55146;SDS011;41039;49.830;23.988;2023-10-09T07:24:00;7.50;;;3.55;;
55146;SDS011;41039;49.830;23.988;2023-10-09T07:26:39;10.02;;;4.30;;
55146;SDS011;41039;49.830;23.988;2023-10-09T07:29:12;9.73;;;4.40;;
55146;SDS011;41039;49.830;23.988;2023-10-09T07:31:46;7.55;;;3.40;;
55146;SDS011;41039;49.830;23.988;2023-10-09T07:34:12;6.65;;;2.97;;
55146;SDS011;41039;49.830;23.988;2023-10-09T07:36:56;8.40;;;3.50;;
55146;SDS011;41039;49.830;23.988;2023-10-09T07:39:28;12.88;;;3.97;;
55146;SDS011;41039;49.830;23.988;2023-10-09T07:41:59;5.03;;;3.00;;
55146;SDS011;41039;49.830;23.988;2023-10-09T07:44:40;8.75;;;4.30;;
55146;SDS011;41039;49.830;23.988;2023-10-09T07:47:07;8.98;;;4.30;;
55146;SDS011;41039;49.830;23.988;2023-10-09T07:49:42;8.00;;;4.15;;
55146;SDS011;41039;49.830;23.988;2023-10-09T07:52:13;6.55;;;3.20;;
55146;SDS011;41039;49.830;23.988;2023-10-09T07:54:38;9.15;;;3.63;;
55146;SDS011;41039;49.830;23.988;2023-10-09T07:57:14;6.43;;;3.15;;
55146;SDS011;41039;49.830;23.988;2023-10-09T07:59:43;6.15;;;3.20;;
55146;SDS011;41039;49.830;23.988;2023-10-09T08:02:36;5.78;;;3.63;;
55146;SDS011;41039;49.830;23.988;2023-10-09T08:05:04;5.68;;;2.90;;
55146;SDS011;41039;49.830;23.988;2023-10-09T08:07:32;7.80;;;3.30;;
55146;SDS011;41039;49.830;23.988;2023-10-09T08:10:04;5.40;;;2.72;;
55146;SDS011;41039;49.830;23.988;2023-10-09T08:12:44;9.75;;;3.28;;
55146;SDS011;41039;49.830;23.988;2023-10-09T08:15:17;6.60;;;3.80;;
55146;SDS011;41039;49.830;23.988;2023-10-09T08:17:51;5.38;;;2.90;;
55146;SDS011;41039;49.830;23.988;2023-10-09T08:20:24;13.93;;;4.93;;
55146;SDS011;41039;49.830;23.988;2023-10-09T08:22:51;8.27;;;3.35;;
55146;SDS011;41039;49.830;23.988;2023-10-09T08:25:17;5.85;;;3.10;;
55146;SDS011;41039;49.830;23.988;2023-10-09T08:27:56;6.35;;;3.25;;
55146;SDS011;41039;49.830;23.988;2023-10-09T08:30:45;8.02;;;3.33;;
55146;SDS011;41039;49.830;23.988;2023-10-09T08:33:19;7.63;;;3.15;;
55146;SDS011;41039;49.830;23.988;2023-10-09T08:35:47;6.00;;;3.47;;
55146;SDS011;41039;49.830;23.988;2023-10-09T08:38:13;6.72;;;3.17;;
55146;SDS011;41039;49.830;23.988;2023-10-09T08:40:39;7.63;;;3.03;;
55146;SDS011;41039;49.830;23.988;2023-10-09T08:43:09;8.10;;;3.25;;
55146;SDS011;41039;49.830;23.988;2023-10-09T08:45:38;4.63;;;2.53;;
55146;SDS011;41039;49.830;23.988;2023-10-09T08:48:07;6.65;;;3.30;;
55146;SDS011;41039;49.830;23.988;2023-10-09T08:50:32;8.15;;;2.85;;
55146;SDS011;41039;49.830;23.988;2023-10-09T08:52:59;7.15;;;2.85;;
55146;SDS011;41039;49.830;23.988;2023-10-09T08:55:25;6.32;;;3.08;;
55146;SDS011;41039;49.830;23.988;2023-10-09T08:57:50;5.93;;;3.20;;
55146;SDS011;41039;49.830;23.988;2023-10-09T09:00:17;5.85;;;3.17;;
55146;SDS011;41039;49.830;23.988;2023-10-09T09:02:50;6.65;;;3.58;;
55146;SDS011;41039;49.830;23.988;2023-10-09T09:05:21;6.70;;;3.25;;
55146;SDS011;41039;49.830;23.988;2023-10-09T09:07:47;8.40;;;3.88;;
55146;SDS011;41039;49.830;23.988;2023-10-09T09:10:13;5.40;;;3.05;;
55146;SDS011;41039;49.830;23.988;2023-10-09T09:12:47;5.50;;;2.78;;
55146;SDS011;41039;49.830;23.988;2023-10-09T09:15:19;5.05;;;2.47;;
55146;SDS011;41039;49.830;23.988;2023-10-09T09:17:45;7.40;;;3.40;;
55146;SDS011;41039;49.830;23.988;2023-10-09T09:20:23;8.52;;;3.42;;
55146;SDS011;41039;49.830;23.988;2023-10-09T09:22:53;5.07;;;2.63;;
55146;SDS011;41039;49.830;23.988;2023-10-09T09:25:22;5.10;;;2.40;;
55146;SDS011;41039;49.830;23.988;2023-10-09T09:27:50;9.52;;;3.05;;
55146;SDS011;41039;49.830;23.988;2023-10-09T09:30:23;6.40;;;3.08;;
55146;SDS011;41039;49.830;23.988;2023-10-09T09:32:49;5.18;;;2.55;;
55146;SDS011;41039;49.830;23.988;2023-10-09T09:35:34;3.60;;;2.10;;
55146;SDS011;41039;49.830;23.988;2023-10-09T09:38:00;4.97;;;2.38;;
55146;SDS011;41039;49.830;23.988;2023-10-09T09:40:30;7.05;;;3.25;;
55146;SDS011;41039;49.830;23.988;2023-10-09T09:43:00;5.85;;;2.45;;
55146;SDS011;41039;49.830;23.988;2023-10-09T09:45:36;6.50;;;2.40;;
55146;SDS011;41039;49.830;23.988;2023-10-09T09:48:05;5.35;;;2.00;;
55146;SDS011;41039;49.830;23.988;2023-10-09T09:50:33;4.97;;;2.60;;
55146;SDS011;41039;49.830;23.988;2023-10-09T09:53:02;5.97;;;2.08;;
55146;SDS011;41039;49.830;23.988;2023-10-09T09:55:32;7.53;;;2.65;;
55146;SDS011;41039;49.830;23.988;2023-10-09T09:57:58;4.00;;;2.33;;
55146;SDS011;41039;49.830;23.988;2023-10-09T10:00:25;5.80;;;2.80;;
55146;SDS011;41039;49.830;23.988;2023-10-09T10:03:06;7.68;;;2.70;;
55146;SDS011;41039;49.830;23.988;2023-10-09T10:05:32;4.95;;;2.83;;
55146;SDS011;41039;49.830;23.988;2023-10-09T10:07:59;5.15;;;2.38;;
55146;SDS011;41039;49.830;23.988;2023-10-09T10:12:59;5.18;;;2.53;;
55146;SDS011;41039;49.830;23.988;2023-10-09T10:18:12;6.97;;;2.53;;
55146;SDS011;41039;49.830;23.988;2023-10-09T10:21:26;7.25;;;3.50;;
55146;SDS011;41039;49.830;23.988;2023-10-09T10:23:39;5.55;;;2.33;;
55146;SDS011;41039;49.830;23.988;2023-10-09T10:26:18;5.60;;;2.50;;
55146;SDS011;41039;49.830;23.988;2023-10-09T10:29:14;4.68;;;2.22;;
55146;SDS011;41039;49.830;23.988;2023-10-09T10:32:00;7.03;;;2.25;;
55146;SDS011;41039;49.830;23.988;2023-10-09T10:37:21;4.03;;;2.03;;
55146;SDS011;41039;49.830;23.988;2023-10-09T10:39:53;6.88;;;2.08;;
55146;SDS011;41039;49.830;23.988;2023-10-09T10:42:24;10.20;;;2.38;;
55146;SDS011;41039;49.830;23.988;2023-10-09T10:45:01;6.63;;;2.35;;
55146;SDS011;41039;49.830;23.988;2023-10-09T10:47:27;8.35;;;2.25;;
55146;SDS011;41039;49.830;23.988;2023-10-09T10:49:59;5.65;;;2.70;;
55146;SDS011;41039;49.830;23.988;2023-10-09T10:52:45;7.70;;;2.45;;
55146;SDS011;41039;49.830;23.988;2023-10-09T10:55:15;4.15;;;1.65;;
55146;SDS011;41039;49.830;23.988;2023-10-09T10:57:56;7.22;;;2.20;;
55146;SDS011;41039;49.830;23.988;2023-10-09T11:00:26;4.43;;;1.85;;
55146;SDS011;41039;49.830;23.988;2023-10-09T11:03:10;4.00;;;1.88;;
55146;SDS011;41039;49.830;23.988;2023-10-09T11:05:41;3.60;;;2.00;;
55146;SDS011;41039;49.830;23.988;2023-10-09T11:08:10;4.45;;;2.00;;
55146;SDS011;41039;49.830;23.988;2023-10-09T11:10:35;4.28;;;1.98;;
55146;SDS011;41039;49.830;23.988;2023-10-09T11:13:00;4.35;;;1.83;;
55146;SDS011;41039;49.830;23.988;2023-10-09T11:15:35;3.92;;;1.88;;
55146;SDS011;41039;49.830;23.988;2023-10-09T11:18:10;5.28;;;1.75;;
55146;SDS011;41039;49.830;23.988;2023-10-09T11:20:45;4.80;;;2.08;;
55146;SDS011;41039;49.830;23.988;2023-10-09T11:23:28;7.15;;;2.20;;
55146;SDS011;41039;49.830;23.988;2023-10-09T11:26:00;5.97;;;1.92;;
55146;SDS011;41039;49.830;23.988;2023-10-09T11:28:44;6.55;;;2.35;;
55146;SDS011;41039;49.830;23.988;2023-10-09T11:31:22;4.90;;;1.88;;
55146;SDS011;41039;49.830;23.988;2023-10-09T11:33:48;6.07;;;2.38;;
55146;SDS011;41039;49.830;23.988;2023-10-09T11:36:16;5.78;;;2.75;;
55146;SDS011;41039;49.830;23.988;2023-10-09T11:38:42;4.60;;;2.15;;
55146;SDS011;41039;49.830;23.988;2023-10-09T11:41:16;10.55;;;2.67;;
55146;SDS011;41039;49.830;23.988;2023-10-09T11:43:49;5.00;;;2.10;;
55146;SDS011;41039;49.830;23.988;2023-10-09T11:46:18;5.22;;;2.17;;
55146;SDS011;41039;49.830;23.988;2023-10-09T11:49:09;4.85;;;1.92;;
55146;SDS011;41039;49.830;23.988;2023-10-09T11:51:47;4.30;;;2.03;;
55146;SDS011;41039;49.830;23.988;2023-10-09T11:54:31;5.38;;;2.53;;
55146;SDS011;41039;49.830;23.988;2023-10-09T11:56:58;4.53;;;2.30;;
55146;SDS011;41039;49.830;23.988;2023-10-09T11:59:26;4.65;;;1.98;;
55146;SDS011;41039;49.830;23.988;2023-10-09T12:01:52;4.05;;;2.33;;
55146;SDS011;41039;49.830;23.988;2023-10-09T12:04:18;5.45;;;2.38;;
55146;SDS011;41039;49.830;23.988;2023-10-09T12:06:44;4.90;;;2.40;;
55146;SDS011;41039;49.830;23.988;2023-10-09T12:09:09;6.70;;;2.47;;
55146;SDS011;41039;49.830;23.988;2023-10-09T12:11:42;4.63;;;1.98;;
55146;SDS011;41039;49.830;23.988;2023-10-09T12:14:07;5.13;;;1.95;;
55146;SDS011;41039;49.830;23.988;2023-10-09T12:16:32;4.70;;;2.20;;
55146;SDS011;41039;49.830;23.988;2023-10-09T12:18:58;6.05;;;2.40;;
55146;SDS011;41039;49.830;23.988;2023-10-09T12:21:24;6.03;;;2.40;;
55146;SDS011;41039;49.830;23.988;2023-10-09T12:23:53;7.40;;;2.33;;
55146;SDS011;41039;49.830;23.988;2023-10-09T12:26:22;4.43;;;2.25;;
55146;SDS011;41039;49.830;23.988;2023-10-09T12:28:47;7.07;;;2.50;;
55146;SDS011;41039;49.830;23.988;2023-10-09T12:31:14;3.45;;;1.75;;
55146;SDS011;41039;49.830;23.988;2023-10-09T12:33:40;4.40;;;2.15;;
55146;SDS011;41039;49.830;23.988;2023-10-09T12:36:06;6.20;;;2.63;;
55146;SDS011;41039;49.830;23.988;2023-10-09T12:38:31;3.97;;;2.15;;
55146;SDS011;41039;49.830;23.988;2023-10-09T12:41:06;4.10;;;2.35;;
55146;SDS011;41039;49.830;23.988;2023-10-09T12:43:50;4.35;;;2.33;;
55146;SDS011;41039;49.830;23.988;2023-10-09T12:46:17;3.60;;;1.60;;
55146;SDS011;41039;49.830;23.988;2023-10-09T12:48:45;2.80;;;1.30;;
55146;SDS011;41039;49.830;23.988;2023-10-09T12:51:12;6.63;;;2.70;;
55146;SDS011;41039;49.830;23.988;2023-10-09T12:53:41;4.15;;;1.73;;
55146;SDS011;41039;49.830;23.988;2023-10-09T12:56:06;7.43;;;2.15;;
55146;SDS011;41039;49.830;23.988;2023-10-09T12:58:32;3.38;;;1.45;;
55146;SDS011;41039;49.830;23.988;2023-10-09T13:01:02;3.78;;;1.70;;
55146;SDS011;41039;49.830;23.988;2023-10-09T13:03:34;2.70;;;1.38;;
55146;SDS011;41039;49.830;23.988;2023-10-09T13:06:03;5.93;;;3.10;;
55146;SDS011;41039;49.830;23.988;2023-10-09T13:08:32;4.80;;;1.70;;
55146;SDS011;41039;49.830;23.988;2023-10-09T13:11:04;3.88;;;1.25;;
55146;SDS011;41039;49.830;23.988;2023-10-09T13:13:35;2.80;;;1.23;;
55146;SDS011;41039;49.830;23.988;2023-10-09T13:18:33;3.75;;;1.27;;
55146;SDS011;41039;49.830;23.988;2023-10-09T13:20:58;4.82;;;1.70;;
55146;SDS011;41039;49.830;23.988;2023-10-09T13:23:28;3.00;;;1.70;;
55146;SDS011;41039;49.830;23.988;2023-10-09T13:26:03;4.15;;;2.25;;
55146;SDS011;41039;49.830;23.988;2023-10-09T13:28:33;3.63;;;1.65;;
55146;SDS011;41039;49.830;23.988;2023-10-09T13:31:02;4.30;;;1.92;;
55146;SDS011;41039;49.830;23.988;2023-10-09T13:33:29;4.50;;;2.45;;
55146;SDS011;41039;49.830;23.988;2023-10-09T13:36:01;3.57;;;1.63;;
55146;SDS011;41039;49.830;23.988;2023-10-09T13:38:27;3.78;;;1.48;;
55146;SDS011;41039;49.830;23.988;2023-10-09T13:40:57;3.72;;;1.58;;
55146;SDS011;41039;49.830;23.988;2023-10-09T13:43:26;3.47;;;1.83;;
55146;SDS011;41039;49.830;23.988;2023-10-09T13:45:53;4.80;;;2.00;;
55146;SDS011;41039;49.830;23.988;2023-10-09T13:48:18;5.72;;;2.92;;
55146;SDS011;41039;49.830;23.988;2023-10-09T13:50:46;5.00;;;2.55;;
55146;SDS011;41039;49.830;23.988;2023-10-09T13:53:12;5.07;;;2.55;;
55146;SDS011;41039;49.830;23.988;2023-10-09T13:55:39;6.63;;;1.95;;
55146;SDS011;41039;49.830;23.988;2023-10-09T13:58:08;5.63;;;2.08;;
55146;SDS011;41039;49.830;23.988;2023-10-09T14:00:38;3.25;;;1.33;;
55146;SDS011;41039;49.830;23.988;2023-10-09T14:03:07;3.83;;;1.88;;
55146;SDS011;41039;49.830;23.988;2023-10-09T14:05:39;4.68;;;2.08;;
55146;SDS011;41039;49.830;23.988;2023-10-09T14:08:17;8.35;;;3.92;;
55146;SDS011;41039;49.830;23.988;2023-10-09T14:10:42;4.57;;;2.08;;
55146;SDS011;41039;49.830;23.988;2023-10-09T14:13:13;3.67;;;1.63;;
55146;SDS011;41039;49.830;23.988;2023-10-09T14:15:38;3.88;;;1.88;;
55146;SDS011;41039;49.830;23.988;2023-10-09T14:18:06;5.13;;;2.67;;
55146;SDS011;41039;49.830;23.988;2023-10-09T14:20:34;3.08;;;1.30;;
55146;SDS011;41039;49.830;23.988;2023-10-09T14:23:02;3.08;;;1.40;;
55146;SDS011;41039;49.830;23.988;2023-10-09T14:25:32;5.78;;;1.20;;
55146;SDS011;41039;49.830;23.988;2023-10-09T14:27:57;3.75;;;2.08;;
55146;SDS011;41039;49.830;23.988;2023-10-09T14:30:23;6.25;;;2.13;;
55146;SDS011;41039;49.830;23.988;2023-10-09T14:32:56;3.58;;;1.85;;
55146;SDS011;41039;49.830;23.988;2023-10-09T14:35:21;6.93;;;3.08;;
55146;SDS011;41039;49.830;23.988;2023-10-09T14:37:51;4.05;;;1.90;;
55146;SDS011;41039;49.830;23.988;2023-10-09T14:40:18;3.92;;;1.67;;
55146;SDS011;41039;49.830;23.988;2023-10-09T14:42:46;5.45;;;2.15;;
55146;SDS011;41039;49.830;23.988;2023-10-09T14:45:11;2.92;;;1.40;;
55146;SDS011;41039;49.830;23.988;2023-10-09T14:47:43;2.45;;;1.27;;
55146;SDS011;41039;49.830;23.988;2023-10-09T14:50:08;5.13;;;2.50;;
55146;SDS011;41039;49.830;23.988;2023-10-09T14:52:34;4.40;;;1.75;;
55146;SDS011;41039;49.830;23.988;2023-10-09T14:55:03;4.53;;;2.40;;
55146;SDS011;41039;49.830;23.988;2023-10-09T14:57:29;2.67;;;1.48;;
55146;SDS011;41039;49.830;23.988;2023-10-09T14:59:58;3.97;;;1.67;;
55146;SDS011;41039;49.830;23.988;2023-10-09T15:02:24;5.32;;;1.70;;
55146;SDS011;41039;49.830;23.988;2023-10-09T15:04:49;5.30;;;3.05;;
55146;SDS011;41039;49.830;23.988;2023-10-09T15:07:15;5.57;;;2.28;;
55146;SDS011;41039;49.830;23.988;2023-10-09T15:09:40;8.77;;;2.50;;
55146;SDS011;41039;49.830;23.988;2023-10-09T15:12:06;5.95;;;1.98;;
55146;SDS011;41039;49.830;23.988;2023-10-09T15:14:32;4.88;;;1.55;;